createdAt,value
2019-02-07T00:00:04.057Z,-4.36
2019-02-07T00:02:37.810Z,-4.24
2019-02-07T00:05:09.824Z,-4.42
2019-02-07T00:07:41.758Z,-4.45
2019-02-07T00:10:14.025Z,-4.49
2019-02-07T00:12:46.517Z,-4.46
2019-02-07T00:15:19.004Z,-4.26
2019-02-07T00:17:51.102Z,-4.20
2019-02-07T00:20:23.398Z,-4.30
2019-02-07T00:22:56.095Z,-4.32
2019-02-07T00:25:28.100Z,-4.26
2019-02-07T00:27:59.955Z,-4.25
2019-02-07T00:30:34.647Z,-4.26
2019-02-07T00:33:06.635Z,-4.37
2019-02-07T00:35:38.822Z,-4.28
2019-02-07T00:38:12.065Z,-4.25
2019-02-07T00:40:44.504Z,-4.16
2019-02-07T00:43:16.513Z,-4.20
2019-02-07T00:45:49.213Z,-4.10
2019-02-07T00:48:21.064Z,-4.12
2019-02-07T00:50:53.182Z,-4.29
2019-02-07T00:53:26.605Z,-4.31
2019-02-07T00:55:58.537Z,-4.39
2019-02-07T00:58:30.508Z,-4.26
2019-02-07T01:01:02.755Z,-4.39
2019-02-07T01:03:34.690Z,-4.22
2019-02-07T01:06:06.747Z,-4.08
2019-02-07T01:08:38.750Z,-4.06
2019-02-07T01:11:11.484Z,-4.04
2019-02-07T01:13:43.847Z,-4.08
2019-02-07T01:16:15.664Z,-4.12
2019-02-07T01:18:47.472Z,-4.41
2019-02-07T01:21:19.741Z,-4.71
2019-02-07T01:23:51.930Z,-4.59
2019-02-07T01:26:24.508Z,-4.54
2019-02-07T01:28:56.695Z,-4.60
2019-02-07T01:31:29.007Z,-4.59
2019-02-07T01:34:00.908Z,-4.68
2019-02-07T01:36:33.623Z,-4.77
2019-02-07T01:39:09.110Z,-4.70
2019-02-07T01:41:41.133Z,-4.70
2019-02-07T01:44:13.321Z,-4.87
2019-02-07T01:46:45.519Z,-4.83
2019-02-07T01:49:17.527Z,-4.58
2019-02-07T01:51:49.724Z,-4.38
2019-02-07T01:54:21.679Z,-4.21
2019-02-07T01:56:54.146Z,-4.32
2019-02-07T01:59:26.015Z,-4.46
2019-02-07T02:01:57.957Z,-4.65
2019-02-07T02:04:31.110Z,-4.73
2019-02-07T02:07:03.075Z,-4.78
2019-02-07T02:09:35.254Z,-4.81
2019-02-07T02:12:07.443Z,-4.79
2019-02-07T02:14:39.626Z,-4.68
2019-02-07T02:17:11.849Z,-4.81
2019-02-07T02:19:43.773Z,-5.00
2019-02-07T02:22:16.257Z,-4.81
2019-02-07T02:24:48.223Z,-4.64
2019-02-07T02:27:20.450Z,-4.52
2019-02-07T02:29:52.453Z,-4.56
2019-02-07T02:32:24.390Z,-4.50
2019-02-07T02:34:56.327Z,-4.68
2019-02-07T02:37:28.330Z,-4.57
2019-02-07T02:40:00.528Z,-4.73
2019-02-07T02:42:32.739Z,-4.80
2019-02-07T02:45:05.750Z,-4.66
2019-02-07T02:47:38.274Z,-4.77
2019-02-07T02:50:14.375Z,-4.80
2019-02-07T02:52:46.497Z,-4.73
2019-02-07T02:55:25.986Z,-4.53
2019-02-07T02:57:58.181Z,-4.69
2019-02-07T03:00:47.539Z,-4.65
2019-02-07T03:03:36.717Z,-4.65
2019-02-07T03:06:23.555Z,-4.81
2019-02-07T03:09:15.063Z,-4.78
2019-02-07T03:11:55.421Z,-4.74
2019-02-07T03:14:47.111Z,-4.81
2019-02-07T03:17:27.887Z,-4.87
2019-02-07T03:20:18.714Z,-4.95
2019-02-07T03:23:08.373Z,-4.96
2019-02-07T03:26:04.989Z,-5.00
2019-02-07T03:28:56.406Z,-5.05
2019-02-07T03:31:47.341Z,-5.12
2019-02-07T03:34:44.594Z,-5.12
2019-02-07T03:37:25.497Z,-5.13
2019-02-07T03:40:14.693Z,-5.19
2019-02-07T03:42:58.347Z,-5.18
2019-02-07T03:46:03.021Z,-5.27
2019-02-07T03:48:49.359Z,-5.19
2019-02-07T03:51:40.179Z,-4.93
2019-02-07T03:54:31.498Z,-4.77
2019-02-07T03:57:25.451Z,-5.07
2019-02-07T04:00:22.150Z,-5.11
2019-02-07T04:03:21.937Z,-5.03
2019-02-07T04:06:11.014Z,-4.97
2019-02-07T04:08:59.245Z,-4.95
2019-02-07T04:11:56.260Z,-5.01
2019-02-07T04:14:43.865Z,-5.01
2019-02-07T04:17:37.689Z,-5.03
2019-02-07T04:20:38.864Z,-5.04
2019-02-07T04:23:29.045Z,-5.19
2019-02-07T04:26:32.542Z,-5.21
2019-02-07T04:29:26.533Z,-5.17
2019-02-07T04:32:16.005Z,-5.14
2019-02-07T04:34:59.642Z,-5.23
2019-02-07T04:37:43.407Z,-5.34
2019-02-07T04:40:29.486Z,-5.32
2019-02-07T04:43:23.082Z,-5.40
2019-02-07T04:46:12.188Z,-5.42
2019-02-07T04:49:01.586Z,-5.36
2019-02-07T04:51:51.066Z,-5.38
2019-02-07T04:54:41.911Z,-5.23
2019-02-07T04:57:35.528Z,-5.09
2019-02-07T05:00:19.591Z,-4.95
2019-02-07T05:06:21.460Z,-4.99
2019-02-07T05:09:15.992Z,-5.08
2019-02-07T05:12:05.128Z,-5.11
2019-02-07T05:15:08.134Z,-5.03
2019-02-07T05:17:57.464Z,-5.06
2019-02-07T05:20:45.423Z,-5.02
2019-02-07T05:23:48.035Z,-4.92
2019-02-07T05:26:37.336Z,-4.91
2019-02-07T05:29:15.965Z,-4.95
2019-02-07T05:32:24.674Z,-4.85
2019-02-07T05:35:11.120Z,-4.87
2019-02-07T05:38:01.941Z,-4.93
2019-02-07T05:40:43.508Z,-4.90
2019-02-07T05:43:26.562Z,-5.00
2019-02-07T05:46:17.763Z,-4.98
2019-02-07T05:49:05.532Z,-4.91
2019-02-07T05:51:49.479Z,-4.97
2019-02-07T05:54:38.605Z,-4.93
2019-02-07T05:57:33.648Z,-4.91
2019-02-07T06:00:18.243Z,-4.85
2019-02-07T06:03:10.502Z,-4.76
2019-02-07T06:05:59.189Z,-4.75
2019-02-07T06:08:48.856Z,-4.72
2019-02-07T06:11:39.864Z,-4.59
2019-02-07T06:14:45.952Z,-4.58
2019-02-07T06:17:38.094Z,-4.43
2019-02-07T06:20:27.799Z,-4.53
2019-02-07T06:23:18.618Z,-4.44
2019-02-07T06:26:12.969Z,-4.46
2019-02-07T06:28:57.684Z,-4.37
2019-02-07T06:31:54.372Z,-4.34
2019-02-07T06:34:45.463Z,-4.27
2019-02-07T06:37:35.029Z,-4.21
2019-02-07T06:40:42.610Z,-4.20
2019-02-07T06:43:48.164Z,-4.28
2019-02-07T06:46:38.859Z,-4.25
2019-02-07T06:49:39.461Z,-4.28
2019-02-07T06:52:28.597Z,-4.19
2019-02-07T06:55:28.123Z,-4.08
2019-02-07T06:58:22.231Z,-4.24
2019-02-07T07:01:13.369Z,-4.29
2019-02-07T07:03:52.338Z,-4.30
2019-02-07T07:07:01.779Z,-4.31
2019-02-07T07:09:55.840Z,-4.32
2019-02-07T07:12:58.594Z,-4.30
2019-02-07T07:15:42.594Z,-4.28
2019-02-07T07:18:48.428Z,-4.26
2019-02-07T07:21:39.199Z,-4.26
2019-02-07T07:24:29.067Z,-4.19
2019-02-07T07:27:07.955Z,-4.17
2019-02-07T07:29:58.696Z,-4.14
2019-02-07T07:32:55.378Z,-4.13
2019-02-07T07:35:52.047Z,-4.04
2019-02-07T07:38:33.703Z,-4.02
2019-02-07T07:41:30.668Z,-3.97
2019-02-07T07:44:19.833Z,-3.96
2019-02-07T07:47:35.793Z,-3.88
2019-02-07T07:50:11.849Z,-3.78
2019-02-07T07:53:01.208Z,-3.67
2019-02-07T07:55:52.261Z,-3.70
2019-02-07T07:58:40.847Z,-3.67
2019-02-07T08:01:30.106Z,-3.60
2019-02-07T08:04:35.629Z,-3.51
2019-02-07T08:07:25.190Z,-3.30
2019-02-07T08:10:14.507Z,-3.36
2019-02-07T08:13:04.388Z,-3.29
2019-02-07T08:15:53.633Z,-3.09
2019-02-07T08:18:47.703Z,-2.96
2019-02-07T08:21:41.555Z,-2.89
2019-02-07T08:24:31.017Z,-2.91
2019-02-07T08:27:30.701Z,-2.98
2019-02-07T08:30:20.457Z,-2.98
2019-02-07T08:33:02.678Z,-2.93
2019-02-07T08:35:50.804Z,-2.85
2019-02-07T08:38:40.155Z,-2.80
2019-02-07T08:41:34.096Z,-2.68
2019-02-07T08:44:14.403Z,-2.68
2019-02-07T08:47:05.294Z,-2.55
2019-02-07T08:49:54.216Z,-2.55
2019-02-07T08:52:43.899Z,-2.52
2019-02-07T08:55:40.894Z,-2.46
2019-02-07T08:58:26.963Z,-2.41
2019-02-07T09:01:24.071Z,-2.33
2019-02-07T09:04:08.621Z,-2.26
2019-02-07T09:06:59.629Z,-2.21
2019-02-07T09:09:52.778Z,-2.15
2019-02-07T09:12:39.969Z,-2.06
2019-02-07T09:15:33.960Z,-2.01
2019-02-07T09:18:23.583Z,-1.93
2019-02-07T09:21:19.920Z,-1.87
2019-02-07T09:24:01.199Z,-1.80
2019-02-07T09:26:50.421Z,-1.74
2019-02-07T09:29:39.892Z,-1.67
2019-02-07T09:32:42.873Z,-1.45
2019-02-07T09:35:24.270Z,-1.45
2019-02-07T09:38:21.814Z,-1.39
2019-02-07T09:41:11.509Z,-1.27
2019-02-07T09:43:54.959Z,-1.25
2019-02-07T09:46:41.681Z,-1.21
2019-02-07T09:49:24.295Z,-1.09
2019-02-07T09:52:13.483Z,-0.92
2019-02-07T09:55:00.935Z,-0.92
2019-02-07T09:57:50.199Z,-0.85
2019-02-07T10:00:39.664Z,-0.77
2019-02-07T10:03:23.024Z,-0.68
2019-02-07T10:06:16.377Z,-0.63
2019-02-07T10:09:02.133Z,-0.58
2019-02-07T10:11:56.902Z,-0.57
2019-02-07T10:14:55.248Z,-0.50
2019-02-07T10:17:44.888Z,-0.44
2019-02-07T10:20:37.200Z,-0.38
2019-02-07T10:23:23.052Z,-0.33
2019-02-07T10:26:11.204Z,-0.28
2019-02-07T10:29:03.300Z,-0.24
2019-02-07T10:31:52.472Z,-0.23
2019-02-07T10:34:45.884Z,-0.10
2019-02-07T10:37:36.735Z,-0.06
2019-02-07T10:40:25.368Z,-0.01
2019-02-07T10:43:25.145Z,0.04
2019-02-07T10:46:21.402Z,0.03
2019-02-07T10:49:11.370Z,0.06
2019-02-07T10:52:13.985Z,0.14
2019-02-07T10:55:20.303Z,0.19
2019-02-07T10:58:09.488Z,0.19
2019-02-07T11:01:02.759Z,0.21
2019-02-07T11:03:52.491Z,0.23
2019-02-07T11:06:52.154Z,0.25
2019-02-07T11:09:41.511Z,0.25
2019-02-07T11:12:30.914Z,0.24
2019-02-07T11:15:20.920Z,0.26
2019-02-07T11:18:02.532Z,0.25
2019-02-07T11:20:53.342Z,0.34
2019-02-07T11:23:42.945Z,0.34
2019-02-07T11:26:28.250Z,0.35
2019-02-07T11:29:17.922Z,0.40
2019-02-07T11:32:00.252Z,0.43
2019-02-07T11:35:02.903Z,0.45
2019-02-07T11:37:50.119Z,0.48
2019-02-07T11:40:46.946Z,0.47
2019-02-07T11:43:43.484Z,0.49
2019-02-07T11:46:37.286Z,0.49
2019-02-07T11:49:40.281Z,0.52
2019-02-07T11:52:29.635Z,0.52
2019-02-07T11:55:20.618Z,0.60
2019-02-07T11:58:03.579Z,0.63
2019-02-07T12:01:01.695Z,0.64
2019-02-07T12:04:02.286Z,0.64
2019-02-07T12:07:10.932Z,0.66
2019-02-07T12:10:05.148Z,0.73
2019-02-07T12:12:54.994Z,0.79
2019-02-07T12:15:49.703Z,0.88
2019-02-07T12:18:33.333Z,0.84
2019-02-07T12:21:24.283Z,0.86
2019-02-07T12:24:14.379Z,0.86
2019-02-07T12:27:03.560Z,0.86
2019-02-07T12:29:44.645Z,0.85
2019-02-07T12:32:31.840Z,0.87
2019-02-07T12:35:41.258Z,0.90
2019-02-07T12:38:23.354Z,0.93
2019-02-07T12:41:23.251Z,0.96
2019-02-07T12:44:31.899Z,0.99
2019-02-07T12:47:20.529Z,1.06
2019-02-07T12:50:14.233Z,1.03
2019-02-07T12:52:54.369Z,1.05
2019-02-07T12:55:51.900Z,1.02
2019-02-07T12:58:48.982Z,1.05
2019-02-07T13:01:46.991Z,1.03
2019-02-07T13:04:53.109Z,1.02
2019-02-07T13:07:42.235Z,1.05
2019-02-07T13:10:29.531Z,1.05
2019-02-07T13:13:13.857Z,1.05
2019-02-07T13:16:13.674Z,0.97
2019-02-07T13:18:56.575Z,1.08
2019-02-07T13:21:59.495Z,1.08
2019-02-07T13:24:48.925Z,1.11
2019-02-07T13:27:39.860Z,1.13
2019-02-07T13:30:42.096Z,1.14
2019-02-07T13:33:35.764Z,1.16
2019-02-07T13:36:34.013Z,1.19
2019-02-07T13:39:17.501Z,1.17
2019-02-07T13:42:14.687Z,1.19
2019-02-07T13:45:07.913Z,1.20
2019-02-07T13:47:58.848Z,1.24
2019-02-07T13:50:51.360Z,1.23
2019-02-07T13:53:41.156Z,1.24
2019-02-07T13:56:33.302Z,1.25
2019-02-07T13:59:22.795Z,1.30
2019-02-07T14:02:12.052Z,1.28
2019-02-07T14:05:07.056Z,1.32
2019-02-07T14:08:04.552Z,1.30
2019-02-07T14:10:52.315Z,1.30
2019-02-07T14:13:46.976Z,1.35
2019-02-07T14:16:52.745Z,1.37
2019-02-07T14:19:46.536Z,1.37
2019-02-07T14:22:36.156Z,1.40
2019-02-07T14:25:37.167Z,1.48
2019-02-07T14:28:27.691Z,1.50
2019-02-07T14:31:13.815Z,1.55
2019-02-07T14:34:06.565Z,1.55
2019-02-07T14:37:03.235Z,1.60
2019-02-07T14:39:42.580Z,1.62
2019-02-07T14:42:30.075Z,1.67
2019-02-07T14:45:24.181Z,1.68
2019-02-07T14:47:56.144Z,1.65
2019-02-07T14:50:28.203Z,1.64
2019-02-07T14:53:01.987Z,1.70
2019-02-07T14:55:33.899Z,1.72
2019-02-07T14:58:06.034Z,1.74
2019-02-07T15:00:38.980Z,1.77
2019-02-07T15:03:11.907Z,1.78
2019-02-07T15:05:44.497Z,1.82
2019-02-07T15:08:17.283Z,1.86
2019-02-07T15:10:49.342Z,1.91
2019-02-07T15:13:21.176Z,1.94
2019-02-07T15:15:52.995Z,1.98
2019-02-07T15:18:25.246Z,2.06
2019-02-07T15:20:57.158Z,2.01
2019-02-07T15:23:28.995Z,2.19
2019-02-07T15:26:00.875Z,2.08
2019-02-07T15:28:33.175Z,2.13
2019-02-07T15:31:05.493Z,2.19
2019-02-07T15:33:37.795Z,2.22
2019-02-07T15:36:12.573Z,2.23
2019-02-07T15:38:44.473Z,2.16
2019-02-07T15:41:16.364Z,2.13
2019-02-07T15:43:49.399Z,2.08
2019-02-07T15:46:21.333Z,2.04
2019-02-07T15:48:53.154Z,2.04
2019-02-07T15:51:25.044Z,2.04
2019-02-07T15:53:56.854Z,2.04
2019-02-07T15:56:28.749Z,2.03
2019-02-07T15:59:14.863Z,2.06
2019-02-07T16:01:54.243Z,2.03
2019-02-07T16:04:29.408Z,2.00
2019-02-07T16:07:01.306Z,1.99
2019-02-07T16:09:33.239Z,1.98
2019-02-07T16:12:05.413Z,1.97
2019-02-07T16:14:37.318Z,2.00
2019-02-07T16:17:09.287Z,1.97
2019-02-07T16:19:50.475Z,1.97
2019-02-07T16:22:22.457Z,1.96
2019-02-07T16:24:54.337Z,1.98
2019-02-07T16:27:26.500Z,2.05
2019-02-07T16:29:58.395Z,2.03
2019-02-07T16:32:30.215Z,2.01
2019-02-07T16:35:02.115Z,2.04
2019-02-07T16:37:34.993Z,2.05
2019-02-07T16:40:08.206Z,2.05
2019-02-07T16:42:40.119Z,2.06
2019-02-07T16:45:15.297Z,2.13
2019-02-07T16:47:47.184Z,2.12
2019-02-07T16:50:19.782Z,2.12
2019-02-07T16:52:51.657Z,2.14
2019-02-07T16:55:23.586Z,2.23
2019-02-07T16:57:55.379Z,2.11
2019-02-07T17:00:27.253Z,2.16
2019-02-07T17:02:59.513Z,2.12
2019-02-07T17:05:31.429Z,2.09
2019-02-07T17:08:03.319Z,2.08
2019-02-07T17:10:36.014Z,2.06
2019-02-07T17:13:09.213Z,2.05
2019-02-07T17:15:41.371Z,2.13
2019-02-07T17:18:13.257Z,2.17
2019-02-07T17:20:45.229Z,2.18
2019-02-07T17:23:17.122Z,2.18
2019-02-07T17:25:49.203Z,2.15
2019-02-07T17:28:21.014Z,2.13
2019-02-07T17:30:52.910Z,2.18
2019-02-07T17:33:25.772Z,2.19
2019-02-07T17:35:57.682Z,2.23
2019-02-07T17:38:29.581Z,2.30
2019-02-07T17:41:01.413Z,2.32
2019-02-07T17:43:33.437Z,2.41
2019-02-07T17:46:05.629Z,2.39
2019-02-07T17:48:37.494Z,2.46
2019-02-07T17:51:09.458Z,2.46
2019-02-07T17:53:41.533Z,2.52
2019-02-07T17:56:13.475Z,2.47
2019-02-07T17:58:45.243Z,2.49
2019-02-07T18:01:17.280Z,2.51
2019-02-07T18:03:49.144Z,2.54
2019-02-07T18:06:21.068Z,2.45
2019-02-07T18:08:53.247Z,2.52
2019-02-07T18:11:25.105Z,2.55
2019-02-07T18:13:57.192Z,2.57
2019-02-07T18:16:28.943Z,2.53
2019-02-07T18:19:00.853Z,2.56
2019-02-07T18:21:34.494Z,2.46
2019-02-07T18:24:06.614Z,2.57
2019-02-07T18:26:38.651Z,2.55
2019-02-07T18:29:11.711Z,2.47
2019-02-07T18:31:43.638Z,2.60
2019-02-07T18:34:15.873Z,2.54
2019-02-07T18:36:47.679Z,2.55
2019-02-07T18:39:19.583Z,2.63
2019-02-07T18:41:51.507Z,2.49
2019-02-07T18:44:23.393Z,2.54
2019-02-07T18:46:55.262Z,2.51
2019-02-07T18:49:27.119Z,2.50
2019-02-07T18:51:58.906Z,2.52
2019-02-07T18:54:30.672Z,2.62
2019-02-07T18:57:02.789Z,2.66
2019-02-07T18:59:34.555Z,2.54
2019-02-07T19:02:06.789Z,2.60
2019-02-07T19:04:38.692Z,2.58
2019-02-07T19:07:11.214Z,2.51
2019-02-07T19:09:43.038Z,2.48
2019-02-07T19:12:15.057Z,2.62
2019-02-07T19:14:46.973Z,2.53
2019-02-07T19:17:18.904Z,2.51
2019-02-07T19:19:50.766Z,2.55
2019-02-07T19:22:22.791Z,2.52
2019-02-07T19:24:54.582Z,2.49
2019-02-07T19:27:26.532Z,2.44
2019-02-07T19:29:58.457Z,2.46
2019-02-07T19:32:30.225Z,2.51
2019-02-07T19:35:02.046Z,2.46
2019-02-07T19:37:35.226Z,2.33
2019-02-07T19:40:09.398Z,2.36
2019-02-07T19:42:41.379Z,2.38
2019-02-07T19:45:14.295Z,2.37
2019-02-07T19:47:47.365Z,2.47
2019-02-07T19:50:22.103Z,2.35
2019-02-07T19:52:54.896Z,2.21
2019-02-07T19:55:28.462Z,2.32
2019-02-07T19:58:01.728Z,2.39
2019-02-07T20:00:33.727Z,2.33
2019-02-07T20:03:06.019Z,2.17
2019-02-07T20:05:38.101Z,2.09
2019-02-07T20:08:11.297Z,2.06
2019-02-07T20:10:43.461Z,1.96
2019-02-07T20:13:15.641Z,1.90
2019-02-07T20:15:47.732Z,1.73
2019-02-07T20:18:19.557Z,1.62
2019-02-07T20:20:51.519Z,1.50
2019-02-07T20:23:23.674Z,1.42
2019-02-07T20:25:55.526Z,1.35
2019-02-07T20:28:27.619Z,1.27
2019-02-07T20:31:00.613Z,1.22
2019-02-07T20:33:32.523Z,1.13
2019-02-07T20:36:04.680Z,1.08
2019-02-07T20:38:36.514Z,1.06
2019-02-07T20:41:08.338Z,1.04
2019-02-07T20:43:40.486Z,0.98
2019-02-07T20:46:12.381Z,1.02
2019-02-07T20:48:44.573Z,0.86
2019-02-07T20:51:16.496Z,0.87
2019-02-07T20:53:48.389Z,0.87
2019-02-07T20:56:20.429Z,0.79
2019-02-07T20:58:52.253Z,0.77
2019-02-07T21:01:24.194Z,0.72
2019-02-07T21:03:56.214Z,0.67
2019-02-07T21:06:28.353Z,0.59
2019-02-07T21:09:00.151Z,0.50
2019-02-07T21:11:31.900Z,0.46
2019-02-07T21:14:03.908Z,0.44
2019-02-07T21:16:36.040Z,0.36
2019-02-07T21:19:08.172Z,0.33
2019-02-07T21:21:39.945Z,0.30
2019-02-07T21:24:11.927Z,0.32
2019-02-07T21:26:43.942Z,0.26
2019-02-07T21:29:16.045Z,0.30
2019-02-07T21:31:47.787Z,0.21
2019-02-07T21:34:19.551Z,0.13
2019-02-07T21:36:51.396Z,0.13
2019-02-07T21:39:23.222Z,0.04
2019-02-07T21:41:55.473Z,0.05
2019-02-07T21:44:27.377Z,0.09
2019-02-07T21:46:59.292Z,0.28
2019-02-07T21:49:31.128Z,0.20
2019-02-07T21:52:02.886Z,0.22
2019-02-07T21:54:35.031Z,0.23
2019-02-07T21:57:07.118Z,0.08
2019-02-07T21:59:39.016Z,0.02
2019-02-07T22:02:10.934Z,0.09
2019-02-07T22:04:42.882Z,0.03
2019-02-07T22:07:14.800Z,-0.01
2019-02-07T22:09:47.011Z,-0.10
2019-02-07T22:12:18.851Z,-0.16
2019-02-07T22:14:50.816Z,-0.22
2019-02-07T22:17:22.677Z,-0.32
2019-02-07T22:22:30.956Z,-0.32
2019-02-07T22:25:02.859Z,-0.37
2019-02-07T22:27:36.440Z,-0.37
2019-02-07T22:30:22.761Z,-0.41
2019-02-07T22:32:54.954Z,-0.45
2019-02-07T22:35:27.031Z,-0.57
2019-02-07T22:37:59.208Z,-0.55
2019-02-07T22:40:31.128Z,-0.55
2019-02-07T22:43:03.203Z,-0.51
2019-02-07T22:45:35.361Z,-0.48
2019-02-07T22:48:07.961Z,-0.52
2019-02-07T22:50:39.830Z,-0.54
2019-02-07T22:53:11.673Z,-0.57
2019-02-07T22:55:43.601Z,-0.58
2019-02-07T22:58:15.543Z,-0.53
2019-02-07T23:01:35.832Z,-0.59
2019-02-07T23:04:09.527Z,-0.61
2019-02-07T23:06:41.684Z,-0.60
2019-02-07T23:09:15.749Z,-0.58
2019-02-07T23:11:47.972Z,-0.66
2019-02-07T23:14:19.897Z,-0.65
2019-02-07T23:16:51.789Z,-0.68
2019-02-07T23:19:23.735Z,-0.73
2019-02-07T23:21:55.618Z,-0.76
2019-02-07T23:24:27.370Z,-0.80
2019-02-07T23:26:59.179Z,-0.82
2019-02-07T23:29:31.302Z,-0.84
2019-02-07T23:32:03.445Z,-0.83
2019-02-07T23:34:35.308Z,-0.82
2019-02-07T23:37:07.341Z,-0.79
2019-02-07T23:39:39.181Z,-0.87
2019-02-07T23:42:11.325Z,-0.80
2019-02-07T23:44:43.210Z,-0.81
2019-02-07T23:47:15.157Z,-0.92
2019-02-07T23:49:47.048Z,-0.92
2019-02-07T23:52:18.937Z,-0.92
2019-02-07T23:54:50.909Z,-1.14
2019-02-07T23:57:22.811Z,-0.98
2019-02-07T23:59:54.691Z,-0.93
